sensor_id;sensor_type;location;lat;lon;timestamp;pressure;altitude;pressure_sealevel;temperature;humidity
46954;BME280;32707;43.886;12.874;2022-09-21T00:01:17;101645.69;;;13.12;60.51
46954;BME280;32707;43.886;12.874;2022-09-21T00:03:44;101645.69;;;13.12;60.77
46954;BME280;32707;43.886;12.874;2022-09-21T00:06:15;101651.84;;;13.14;60.84
46954;BME280;32707;43.886;12.874;2022-09-21T00:08:41;101655.78;;;13.13;60.92
46954;BME280;32707;43.886;12.874;2022-09-21T00:11:14;101649.03;;;13.14;60.76
46954;BME280;32707;43.886;12.874;2022-09-21T00:13:40;101660.88;;;13.11;60.44
46954;BME280;32707;43.886;12.874;2022-09-21T00:16:07;101651.44;;;13.07;61.07
46954;BME280;32707;43.886;12.874;2022-09-21T00:18:33;101656.56;;;13.05;60.94
46954;BME280;32707;43.886;12.874;2022-09-21T00:21:00;101663.09;;;13.00;61.42
46954;BME280;32707;43.886;12.874;2022-09-21T00:23:26;101664.88;;;12.96;61.20
46954;BME280;32707;43.886;12.874;2022-09-21T00:25:52;101664.38;;;12.94;61.53
46954;BME280;32707;43.886;12.874;2022-09-21T00:28:17;101656.47;;;12.96;61.22
46954;BME280;32707;43.886;12.874;2022-09-21T00:30:43;101660.09;;;12.96;61.01
46954;BME280;32707;43.886;12.874;2022-09-21T00:33:11;101656.16;;;12.97;61.22
46954;BME280;32707;43.886;12.874;2022-09-21T00:35:37;101659.28;;;12.96;61.57
46954;BME280;32707;43.886;12.874;2022-09-21T00:38:02;101657.28;;;12.96;61.35
46954;BME280;32707;43.886;12.874;2022-09-21T00:40:29;101652.50;;;12.97;61.48
46954;BME280;32707;43.886;12.874;2022-09-21T00:43:11;101648.22;;;12.99;61.54
46954;BME280;32707;43.886;12.874;2022-09-21T00:45:37;101652.88;;;13.04;61.33
46954;BME280;32707;43.886;12.874;2022-09-21T00:48:02;101659.00;;;13.06;61.39
46954;BME280;32707;43.886;12.874;2022-09-21T00:50:28;101648.63;;;13.07;61.57
46954;BME280;32707;43.886;12.874;2022-09-21T00:52:55;101656.22;;;13.06;61.10
46954;BME280;32707;43.886;12.874;2022-09-21T00:55:29;101657.69;;;13.03;61.21
46954;BME280;32707;43.886;12.874;2022-09-21T00:58:03;101649.06;;;13.00;61.33
46954;BME280;32707;43.886;12.874;2022-09-21T01:00:32;101656.66;;;12.99;61.26
46954;BME280;32707;43.886;12.874;2022-09-21T01:02:58;101663.22;;;12.95;61.67
46954;BME280;32707;43.886;12.874;2022-09-21T01:05:26;101661.06;;;12.92;61.44
46954;BME280;32707;43.886;12.874;2022-09-21T01:07:56;101665.09;;;12.86;62.17
46954;BME280;32707;43.886;12.874;2022-09-21T01:10:25;101668.06;;;12.80;62.09
46954;BME280;32707;43.886;12.874;2022-09-21T01:21:17;101664.97;;;12.54;62.61
46954;BME280;32707;43.886;12.874;2022-09-21T01:26:49;101668.91;;;12.53;62.73
46954;BME280;32707;43.886;12.874;2022-09-21T01:35:30;101671.31;;;12.46;62.20
46954;BME280;32707;43.886;12.874;2022-09-21T01:37:41;101667.16;;;12.43;62.47
46954;BME280;32707;43.886;12.874;2022-09-21T01:40:14;101673.72;;;12.39;62.48
46954;BME280;32707;43.886;12.874;2022-09-21T01:42:42;101672.16;;;12.33;62.66
46954;BME280;32707;43.886;12.874;2022-09-21T01:45:10;101681.22;;;12.30;63.01
46954;BME280;32707;43.886;12.874;2022-09-21T01:47:38;101664.69;;;12.28;63.12
46954;BME280;32707;43.886;12.874;2022-09-21T01:50:08;101667.69;;;12.32;63.12
46954;BME280;32707;43.886;12.874;2022-09-21T01:52:49;101672.16;;;12.33;62.89
46954;BME280;32707;43.886;12.874;2022-09-21T01:55:33;101671.31;;;12.32;62.87
46954;BME280;32707;43.886;12.874;2022-09-21T01:58:19;101661.22;;;12.31;63.23
46954;BME280;32707;43.886;12.874;2022-09-21T02:00:49;101659.69;;;12.25;63.12
46954;BME280;32707;43.886;12.874;2022-09-21T02:05:46;101645.03;;;12.00;62.94
46954;BME280;32707;43.886;12.874;2022-09-21T02:08:12;101653.00;;;11.93;63.02
46954;BME280;32707;43.886;12.874;2022-09-21T02:10:47;101641.78;;;11.93;63.62
46954;BME280;32707;43.886;12.874;2022-09-21T02:13:14;101638.16;;;11.93;63.88
46954;BME280;32707;43.886;12.874;2022-09-21T02:15:47;101636.69;;;11.95;63.47
46954;BME280;32707;43.886;12.874;2022-09-21T02:18:29;101635.13;;;11.89;63.50
46954;BME280;32707;43.886;12.874;2022-09-21T02:21:02;101640.28;;;11.82;64.02
46954;BME280;32707;43.886;12.874;2022-09-21T02:23:42;101632.31;;;11.75;64.05
46954;BME280;32707;43.886;12.874;2022-09-21T02:26:16;101633.00;;;11.67;64.20
46954;BME280;32707;43.886;12.874;2022-09-21T02:33:58;101645.94;;;11.49;64.54
46954;BME280;32707;43.886;12.874;2022-09-21T02:36:52;101639.81;;;11.47;64.40
46954;BME280;32707;43.886;12.874;2022-09-21T02:39:34;101642.94;;;11.45;65.05
46954;BME280;32707;43.886;12.874;2022-09-21T02:44:37;101654.56;;;11.53;64.92
46954;BME280;32707;43.886;12.874;2022-09-21T02:47:20;101663.72;;;11.58;64.80
46954;BME280;32707;43.886;12.874;2022-09-21T02:49:51;101666.94;;;11.65;64.46
46954;BME280;32707;43.886;12.874;2022-09-21T02:52:20;101672.69;;;11.74;64.19
46954;BME280;32707;43.886;12.874;2022-09-21T02:54:49;101683.41;;;11.86;64.60
46954;BME280;32707;43.886;12.874;2022-09-21T02:57:18;101703.63;;;12.02;64.25
46954;BME280;32707;43.886;12.874;2022-09-21T02:59:45;101709.03;;;12.12;63.57
46954;BME280;32707;43.886;12.874;2022-09-21T03:02:11;101695.00;;;12.12;63.57
46954;BME280;32707;43.886;12.874;2022-09-21T03:04:38;101697.81;;;12.12;64.13
46954;BME280;32707;43.886;12.874;2022-09-21T03:07:06;101688.16;;;12.18;64.24
46954;BME280;32707;43.886;12.874;2022-09-21T03:09:31;101689.41;;;12.26;64.30
46954;BME280;32707;43.886;12.874;2022-09-21T03:11:57;101693.38;;;12.39;64.06
46954;BME280;32707;43.886;12.874;2022-09-21T03:14:22;101689.81;;;12.47;63.64
46954;BME280;32707;43.886;12.874;2022-09-21T03:16:48;101682.53;;;12.60;63.34
46954;BME280;32707;43.886;12.874;2022-09-21T03:19:13;101679.50;;;12.70;62.96
46954;BME280;32707;43.886;12.874;2022-09-21T03:21:40;101683.22;;;12.79;63.17
46954;BME280;32707;43.886;12.874;2022-09-21T03:24:05;101690.59;;;12.89;63.21
46954;BME280;32707;43.886;12.874;2022-09-21T03:26:31;101698.59;;;12.96;63.16
46954;BME280;32707;43.886;12.874;2022-09-21T03:28:57;101700.97;;;13.02;62.79
46954;BME280;32707;43.886;12.874;2022-09-21T03:31:23;101703.97;;;13.06;63.11
46954;BME280;32707;43.886;12.874;2022-09-21T03:33:48;101695.53;;;13.06;63.31
46954;BME280;32707;43.886;12.874;2022-09-21T03:36:14;101710.75;;;13.05;63.00
46954;BME280;32707;43.886;12.874;2022-09-21T03:38:39;101703.47;;;13.04;63.62
46954;BME280;32707;43.886;12.874;2022-09-21T03:41:05;101708.66;;;12.97;62.94
46954;BME280;32707;43.886;12.874;2022-09-21T03:43:31;101716.38;;;12.91;63.38
46954;BME280;32707;43.886;12.874;2022-09-21T03:45:57;101715.66;;;12.86;63.89
46954;BME280;32707;43.886;12.874;2022-09-21T03:48:22;101714.22;;;12.88;63.90
46954;BME280;32707;43.886;12.874;2022-09-21T03:50:48;101713.25;;;12.93;63.16
46954;BME280;32707;43.886;12.874;2022-09-21T03:53:14;101720.97;;;13.01;63.72
46954;BME280;32707;43.886;12.874;2022-09-21T03:55:40;101719.69;;;13.07;63.65
46954;BME280;32707;43.886;12.874;2022-09-21T03:58:06;101725.50;;;13.11;63.10
46954;BME280;32707;43.886;12.874;2022-09-21T04:00:32;101744.88;;;13.12;63.45
46954;BME280;32707;43.886;12.874;2022-09-21T04:02:57;101755.81;;;13.14;63.37
46954;BME280;32707;43.886;12.874;2022-09-21T04:05:23;101763.38;;;13.13;63.34
46954;BME280;32707;43.886;12.874;2022-09-21T04:07:49;101760.34;;;13.10;63.21
46954;BME280;32707;43.886;12.874;2022-09-21T04:10:17;101759.13;;;13.02;63.37
46954;BME280;32707;43.886;12.874;2022-09-21T04:12:44;101764.69;;;12.93;64.30
46954;BME280;32707;43.886;12.874;2022-09-21T04:15:15;101768.09;;;12.90;64.66
46954;BME280;32707;43.886;12.874;2022-09-21T04:17:44;101780.47;;;12.89;64.03
46954;BME280;32707;43.886;12.874;2022-09-21T04:20:10;101774.03;;;12.89;64.71
46954;BME280;32707;43.886;12.874;2022-09-21T04:22:36;101784.53;;;12.83;64.84
46954;BME280;32707;43.886;12.874;2022-09-21T04:25:03;101789.63;;;12.81;64.66
46954;BME280;32707;43.886;12.874;2022-09-21T04:27:30;101796.72;;;12.78;65.25
46954;BME280;32707;43.886;12.874;2022-09-21T04:29:56;101791.72;;;12.75;65.11
46954;BME280;32707;43.886;12.874;2022-09-21T04:32:21;101789.31;;;12.69;65.93
46954;BME280;32707;43.886;12.874;2022-09-21T04:34:47;101789.97;;;12.66;65.64
46954;BME280;32707;43.886;12.874;2022-09-21T04:37:12;101789.75;;;12.62;65.55
46954;BME280;32707;43.886;12.874;2022-09-21T04:39:38;101796.81;;;12.59;66.14
46954;BME280;32707;43.886;12.874;2022-09-21T04:42:04;101788.19;;;12.56;66.55
46954;BME280;32707;43.886;12.874;2022-09-21T04:44:29;101797.94;;;12.58;66.43
46954;BME280;32707;43.886;12.874;2022-09-21T04:46:56;101795.06;;;12.63;66.57
46954;BME280;32707;43.886;12.874;2022-09-21T04:49:21;101794.94;;;12.69;67.01
46954;BME280;32707;43.886;12.874;2022-09-21T04:51:47;101810.56;;;12.75;67.20
46954;BME280;32707;43.886;12.874;2022-09-21T04:54:12;101807.63;;;12.80;67.09
46954;BME280;32707;43.886;12.874;2022-09-21T04:56:38;101820.53;;;12.81;67.27
46954;BME280;32707;43.886;12.874;2022-09-21T04:59:04;101819.06;;;12.83;67.19
46954;BME280;32707;43.886;12.874;2022-09-21T05:01:29;101827.91;;;12.77;67.76
46954;BME280;32707;43.886;12.874;2022-09-21T05:03:55;101846.84;;;12.71;67.88
46954;BME280;32707;43.886;12.874;2022-09-21T05:06:29;101855.88;;;12.68;68.15
46954;BME280;32707;43.886;12.874;2022-09-21T05:08:54;101860.66;;;12.68;68.00
46954;BME280;32707;43.886;12.874;2022-09-21T05:11:41;101851.81;;;12.60;68.47
46954;BME280;32707;43.886;12.874;2022-09-21T05:14:08;101864.91;;;12.51;68.89
46954;BME280;32707;43.886;12.874;2022-09-21T05:16:34;101871.44;;;12.47;69.06
46954;BME280;32707;43.886;12.874;2022-09-21T05:18:59;101871.16;;;12.48;69.41
46954;BME280;32707;43.886;12.874;2022-09-21T05:21:25;101871.03;;;12.53;69.50
46954;BME280;32707;43.886;12.874;2022-09-21T05:23:51;101867.09;;;12.54;69.33
46954;BME280;32707;43.886;12.874;2022-09-21T05:26:16;101874.06;;;12.57;69.94
46954;BME280;32707;43.886;12.874;2022-09-21T05:28:42;101885.50;;;12.60;69.67
46954;BME280;32707;43.886;12.874;2022-09-21T05:33:54;101878.75;;;12.61;69.53
46954;BME280;32707;43.886;12.874;2022-09-21T05:36:54;101883.31;;;12.57;70.51
46954;BME280;32707;43.886;12.874;2022-09-21T05:39:22;101878.84;;;12.56;70.08
46954;BME280;32707;43.886;12.874;2022-09-21T05:41:47;101875.00;;;12.52;70.38
46954;BME280;32707;43.886;12.874;2022-09-21T05:44:13;101879.56;;;12.48;70.61
46954;BME280;32707;43.886;12.874;2022-09-21T05:46:41;101882.16;;;12.44;70.72
46954;BME280;32707;43.886;12.874;2022-09-21T05:49:18;101894.50;;;12.43;71.45
46954;BME280;32707;43.886;12.874;2022-09-21T05:52:14;101905.34;;;12.50;70.88
46954;BME280;32707;43.886;12.874;2022-09-21T05:55:09;101912.53;;;12.56;71.44
46954;BME280;32707;43.886;12.874;2022-09-21T06:01:12;101923.69;;;12.61;70.94
46954;BME280;32707;43.886;12.874;2022-09-21T06:03:41;101925.41;;;12.57;71.01
46954;BME280;32707;43.886;12.874;2022-09-21T06:06:08;101929.91;;;12.58;71.36
46954;BME280;32707;43.886;12.874;2022-09-21T06:08:36;101927.41;;;12.57;71.33
46954;BME280;32707;43.886;12.874;2022-09-21T06:11:07;101925.53;;;12.52;72.17
46954;BME280;32707;43.886;12.874;2022-09-21T06:13:33;101926.66;;;12.51;71.81
46954;BME280;32707;43.886;12.874;2022-09-21T06:16:02;101931.88;;;12.58;72.12
46954;BME280;32707;43.886;12.874;2022-09-21T06:18:27;101925.25;;;12.68;71.66
46954;BME280;32707;43.886;12.874;2022-09-21T06:20:53;101931.59;;;12.73;72.18
46954;BME280;32707;43.886;12.874;2022-09-21T06:23:18;101922.25;;;12.78;72.19
46954;BME280;32707;43.886;12.874;2022-09-21T06:25:50;101920.59;;;12.77;72.07
46954;BME280;32707;43.886;12.874;2022-09-21T06:28:18;101920.91;;;12.75;72.34
46954;BME280;32707;43.886;12.874;2022-09-21T06:30:50;101918.59;;;12.77;72.70
46954;BME280;32707;43.886;12.874;2022-09-21T06:33:15;101930.88;;;12.81;72.39
46954;BME280;32707;43.886;12.874;2022-09-21T06:35:53;101916.16;;;12.90;72.31
46954;BME280;32707;43.886;12.874;2022-09-21T06:38:19;101916.75;;;13.00;72.46
46954;BME280;32707;43.886;12.874;2022-09-21T06:40:44;101920.13;;;13.16;72.10
46954;BME280;32707;43.886;12.874;2022-09-21T06:43:10;101920.66;;;13.32;72.18
46954;BME280;32707;43.886;12.874;2022-09-21T06:45:36;101919.50;;;13.47;72.06
46954;BME280;32707;43.886;12.874;2022-09-21T06:48:01;101931.16;;;13.54;71.98
46954;BME280;32707;43.886;12.874;2022-09-21T06:50:27;101927.53;;;13.54;71.88
46954;BME280;32707;43.886;12.874;2022-09-21T06:52:52;101923.69;;;13.50;72.11
46954;BME280;32707;43.886;12.874;2022-09-21T06:55:18;101928.66;;;13.53;72.59
46954;BME280;32707;43.886;12.874;2022-09-21T06:57:44;101926.16;;;13.65;72.45
46954;BME280;32707;43.886;12.874;2022-09-21T07:00:11;101923.56;;;13.69;72.06
46954;BME280;32707;43.886;12.874;2022-09-21T07:02:37;101928.47;;;13.63;72.23
46954;BME280;32707;43.886;12.874;2022-09-21T07:05:03;101938.44;;;13.69;72.30
46954;BME280;32707;43.886;12.874;2022-09-21T07:07:29;101934.13;;;13.86;72.20
46954;BME280;32707;43.886;12.874;2022-09-21T07:09:56;101937.72;;;14.00;72.22
46954;BME280;32707;43.886;12.874;2022-09-21T07:12:23;101939.81;;;14.08;72.09
46954;BME280;32707;43.886;12.874;2022-09-21T07:14:50;101936.88;;;14.13;72.27
46954;BME280;32707;43.886;12.874;2022-09-21T07:17:16;101929.78;;;14.16;72.13
46954;BME280;32707;43.886;12.874;2022-09-21T07:19:41;101931.75;;;14.15;72.06
46954;BME280;32707;43.886;12.874;2022-09-21T07:22:07;101938.41;;;14.19;72.11
46954;BME280;32707;43.886;12.874;2022-09-21T07:24:33;101941.03;;;14.38;72.12
46954;BME280;32707;43.886;12.874;2022-09-21T07:26:58;101945.88;;;14.61;72.18
46954;BME280;32707;43.886;12.874;2022-09-21T07:29:24;101945.91;;;14.69;71.66
46954;BME280;32707;43.886;12.874;2022-09-21T07:31:49;101951.94;;;14.76;71.61
46954;BME280;32707;43.886;12.874;2022-09-21T07:34:15;101949.19;;;14.85;71.02
46954;BME280;32707;43.886;12.874;2022-09-21T07:36:40;101952.56;;;14.96;71.29
46954;BME280;32707;43.886;12.874;2022-09-21T07:39:08;101945.75;;;14.97;71.19
46954;BME280;32707;43.886;12.874;2022-09-21T07:41:34;101947.44;;;15.07;71.37
46954;BME280;32707;43.886;12.874;2022-09-21T07:44:00;101955.31;;;15.19;71.14
46954;BME280;32707;43.886;12.874;2022-09-21T07:46:25;101954.53;;;15.27;71.15
46954;BME280;32707;43.886;12.874;2022-09-21T07:48:55;101960.88;;;15.41;70.75
46954;BME280;32707;43.886;12.874;2022-09-21T07:51:21;101951.47;;;15.54;71.05
46954;BME280;32707;43.886;12.874;2022-09-21T07:53:53;101950.19;;;15.69;70.20
46954;BME280;32707;43.886;12.874;2022-09-21T07:56:21;101957.28;;;15.67;70.39
46954;BME280;32707;43.886;12.874;2022-09-21T07:58:46;101965.13;;;15.70;70.30
46954;BME280;32707;43.886;12.874;2022-09-21T08:01:33;101964.34;;;15.87;70.39
46954;BME280;32707;43.886;12.874;2022-09-21T08:04:00;101979.34;;;16.05;69.43
46954;BME280;32707;43.886;12.874;2022-09-21T08:06:28;101965.16;;;16.92;68.03
46954;BME280;32707;43.886;12.874;2022-09-21T08:08:55;101974.16;;;16.94;68.15
46954;BME280;32707;43.886;12.874;2022-09-21T08:11:21;101965.16;;;17.78;66.30
46954;BME280;32707;43.886;12.874;2022-09-21T08:13:51;101971.09;;;18.36;65.42
46954;BME280;32707;43.886;12.874;2022-09-21T08:16:16;101975.75;;;18.32;65.25
46954;BME280;32707;43.886;12.874;2022-09-21T08:18:42;101964.03;;;18.42;64.91
46954;BME280;32707;43.886;12.874;2022-09-21T08:21:09;101966.94;;;18.12;65.11
46954;BME280;32707;43.886;12.874;2022-09-21T08:23:35;101971.44;;;17.83;66.30
46954;BME280;32707;43.886;12.874;2022-09-21T08:26:05;101964.66;;;17.76;66.34
46954;BME280;32707;43.886;12.874;2022-09-21T08:28:32;101974.97;;;17.72;66.57
46954;BME280;32707;43.886;12.874;2022-09-21T08:30:59;101974.91;;;17.59;66.57
46954;BME280;32707;43.886;12.874;2022-09-21T08:33:26;101980.00;;;17.36;67.15
46954;BME280;32707;43.886;12.874;2022-09-21T08:35:56;101978.91;;;17.20;67.32
46954;BME280;32707;43.886;12.874;2022-09-21T08:38:23;101972.94;;;17.13;67.50
46954;BME280;32707;43.886;12.874;2022-09-21T08:40:49;101979.53;;;17.25;67.07
46954;BME280;32707;43.886;12.874;2022-09-21T08:44:03;101985.13;;;17.43;66.93
46954;BME280;32707;43.886;12.874;2022-09-21T08:46:12;101988.34;;;17.62;66.41
46954;BME280;32707;43.886;12.874;2022-09-21T08:48:42;101984.22;;;17.60;66.24
46954;BME280;32707;43.886;12.874;2022-09-21T08:51:14;101972.97;;;18.65;64.41
46954;BME280;32707;43.886;12.874;2022-09-21T08:53:47;101973.03;;;21.22;59.04
46954;BME280;32707;43.886;12.874;2022-09-21T08:56:14;101975.75;;;22.53;56.46
46954;BME280;32707;43.886;12.874;2022-09-21T08:58:42;101973.72;;;23.62;54.44
46954;BME280;32707;43.886;12.874;2022-09-21T09:18:17;101973.34;;;27.82;46.84
46954;BME280;32707;43.886;12.874;2022-09-21T09:20:57;101964.59;;;29.17;44.37
46954;BME280;32707;43.886;12.874;2022-09-21T09:23:28;101964.72;;;29.55;43.85
46954;BME280;32707;43.886;12.874;2022-09-21T09:26:18;101965.53;;;30.35;42.38
46954;BME280;32707;43.886;12.874;2022-09-21T09:28:56;101962.28;;;30.33;42.39
46954;BME280;32707;43.886;12.874;2022-09-21T09:31:34;101946.75;;;30.19;42.54
46954;BME280;32707;43.886;12.874;2022-09-21T09:34:02;101954.53;;;30.88;41.78
46954;BME280;32707;43.886;12.874;2022-09-21T09:36:33;101944.63;;;31.87;39.92
46954;BME280;32707;43.886;12.874;2022-09-21T09:39:12;101949.81;;;32.59;38.00
46954;BME280;32707;43.886;12.874;2022-09-21T09:47:29;101941.53;;;31.27;39.46
46954;BME280;32707;43.886;12.874;2022-09-21T09:52:24;101927.09;;;33.10;35.58
46954;BME280;32707;43.886;12.874;2022-09-21T09:54:50;101937.97;;;33.39;34.66
46954;BME280;32707;43.886;12.874;2022-09-21T09:57:23;101918.69;;;32.43;35.66
46954;BME280;32707;43.886;12.874;2022-09-21T09:59:54;101919.38;;;32.87;34.80
46954;BME280;32707;43.886;12.874;2022-09-21T10:02:25;101929.81;;;30.83;37.11
46954;BME280;32707;43.886;12.874;2022-09-21T10:04:57;101929.66;;;31.48;36.09
46954;BME280;32707;43.886;12.874;2022-09-21T10:07:41;101913.03;;;32.56;33.93
46954;BME280;32707;43.886;12.874;2022-09-21T10:10:28;101928.84;;;30.35;36.52
46954;BME280;32707;43.886;12.874;2022-09-21T10:15:53;101925.88;;;31.00;34.91
46954;BME280;32707;43.886;12.874;2022-09-21T10:18:26;101924.50;;;31.80;33.79
46954;BME280;32707;43.886;12.874;2022-09-21T10:21:00;101915.88;;;32.60;32.39
46954;BME280;32707;43.886;12.874;2022-09-21T10:23:27;101910.38;;;32.65;31.98
46954;BME280;32707;43.886;12.874;2022-09-21T10:26:00;101922.41;;;30.55;34.51
46954;BME280;32707;43.886;12.874;2022-09-21T10:28:27;101927.00;;;29.31;36.16
46954;BME280;32707;43.886;12.874;2022-09-21T10:33:46;101922.38;;;30.24;34.42
46954;BME280;32707;43.886;12.874;2022-09-21T10:36:26;101923.59;;;29.47;34.97
46954;BME280;32707;43.886;12.874;2022-09-21T10:38:52;101928.50;;;28.02;36.93
46954;BME280;32707;43.886;12.874;2022-09-21T10:41:18;101923.66;;;27.49;37.28
46954;BME280;32707;43.886;12.874;2022-09-21T10:43:43;101932.47;;;29.11;34.68
46954;BME280;32707;43.886;12.874;2022-09-21T10:46:09;101921.03;;;30.63;32.64
46954;BME280;32707;43.886;12.874;2022-09-21T10:48:36;101928.38;;;31.73;31.06
46954;BME280;32707;43.886;12.874;2022-09-21T10:51:02;101919.66;;;32.37;30.08
46954;BME280;32707;43.886;12.874;2022-09-21T10:53:29;101932.09;;;32.57;29.89
46954;BME280;32707;43.886;12.874;2022-09-21T10:56:16;101924.88;;;32.82;29.50
46954;BME280;32707;43.886;12.874;2022-09-21T10:59:11;101923.78;;;33.12;29.18
46954;BME280;32707;43.886;12.874;2022-09-21T11:01:48;101918.28;;;33.63;28.27
46954;BME280;32707;43.886;12.874;2022-09-21T11:04:28;101921.69;;;33.91;28.26
46954;BME280;32707;43.886;12.874;2022-09-21T11:07:13;101915.84;;;33.62;28.34
46954;BME280;32707;43.886;12.874;2022-09-21T11:09:47;101923.69;;;33.32;28.76
46954;BME280;32707;43.886;12.874;2022-09-21T11:20:32;101932.34;;;33.48;27.99
46954;BME280;32707;43.886;12.874;2022-09-21T11:23:20;101920.56;;;33.39;27.69
46954;BME280;32707;43.886;12.874;2022-09-21T11:25:55;101924.31;;;33.56;27.87
46954;BME280;32707;43.886;12.874;2022-09-21T11:28:32;101929.06;;;32.97;28.06
46954;BME280;32707;43.886;12.874;2022-09-21T11:56:42;101932.84;;;32.78;27.11
46954;BME280;32707;43.886;12.874;2022-09-21T11:59:42;101927.03;;;33.30;26.43
46954;BME280;32707;43.886;12.874;2022-09-21T12:02:28;101921.22;;;33.30;26.48
46954;BME280;32707;43.886;12.874;2022-09-21T12:05:23;101921.69;;;33.29;26.44
46954;BME280;32707;43.886;12.874;2022-09-21T12:21:48;101920.72;;;32.99;26.24
46954;BME280;32707;43.886;12.874;2022-09-21T12:24:18;101918.69;;;33.16;25.98
46954;BME280;32707;43.886;12.874;2022-09-21T12:26:49;101916.88;;;33.22;25.73
46954;BME280;32707;43.886;12.874;2022-09-21T12:29:39;101908.63;;;33.37;25.79
46954;BME280;32707;43.886;12.874;2022-09-21T12:34:59;101910.72;;;33.20;25.70
46954;BME280;32707;43.886;12.874;2022-09-21T12:40:01;101915.47;;;33.60;25.16
46954;BME280;32707;43.886;12.874;2022-09-21T12:42:39;101913.16;;;33.38;25.37
46954;BME280;32707;43.886;12.874;2022-09-21T12:45:16;101917.25;;;33.24;25.51
46954;BME280;32707;43.886;12.874;2022-09-21T12:50:54;101911.78;;;33.43;24.98
46954;BME280;32707;43.886;12.874;2022-09-21T12:53:25;101909.78;;;33.07;25.41
46954;BME280;32707;43.886;12.874;2022-09-21T12:56:02;101911.94;;;33.03;25.56
46954;BME280;32707;43.886;12.874;2022-09-21T13:06:49;101906.50;;;30.70;27.52
46954;BME280;32707;43.886;12.874;2022-09-21T13:09:22;101920.03;;;29.29;29.54
46954;BME280;32707;43.886;12.874;2022-09-21T13:11:54;101914.59;;;27.94;30.72
46954;BME280;32707;43.886;12.874;2022-09-21T13:14:24;101908.84;;;26.89;32.01
46954;BME280;32707;43.886;12.874;2022-09-21T13:16:58;101915.31;;;25.77;33.02
46954;BME280;32707;43.886;12.874;2022-09-21T13:19:29;101910.16;;;24.97;34.07
46954;BME280;32707;43.886;12.874;2022-09-21T13:22:24;101915.88;;;24.25;34.60
46954;BME280;32707;43.886;12.874;2022-09-21T13:25:03;101910.50;;;23.63;35.04
46954;BME280;32707;43.886;12.874;2022-09-21T13:33:00;101917.34;;;22.66;35.82
46954;BME280;32707;43.886;12.874;2022-09-21T13:35:59;101919.66;;;22.38;35.98
46954;BME280;32707;43.886;12.874;2022-09-21T13:39:14;101920.97;;;22.24;36.13
46954;BME280;32707;43.886;12.874;2022-09-21T13:51:48;101906.94;;;22.35;35.73
46954;BME280;32707;43.886;12.874;2022-09-21T13:54:16;101900.66;;;22.26;36.03
46954;BME280;32707;43.886;12.874;2022-09-21T13:56:43;101906.78;;;22.08;36.27
46954;BME280;32707;43.886;12.874;2022-09-21T13:59:20;101902.88;;;21.97;36.42
46954;BME280;32707;43.886;12.874;2022-09-21T14:01:48;101903.75;;;21.82;36.70
46954;BME280;32707;43.886;12.874;2022-09-21T14:04:31;101898.16;;;21.69;36.99
46954;BME280;32707;43.886;12.874;2022-09-21T14:07:05;101908.13;;;21.60;37.01
46954;BME280;32707;43.886;12.874;2022-09-21T14:09:59;101901.78;;;21.50;37.17
46954;BME280;32707;43.886;12.874;2022-09-21T14:12:32;101917.16;;;21.46;37.23
46954;BME280;32707;43.886;12.874;2022-09-21T14:15:29;101905.41;;;21.47;37.27
46954;BME280;32707;43.886;12.874;2022-09-21T14:18:17;101910.34;;;21.50;37.06
46954;BME280;32707;43.886;12.874;2022-09-21T14:21:14;101908.97;;;21.44;37.20
46954;BME280;32707;43.886;12.874;2022-09-21T14:31:37;101907.94;;;21.88;36.46
46954;BME280;32707;43.886;12.874;2022-09-21T14:34:11;101899.03;;;22.09;36.20
46954;BME280;32707;43.886;12.874;2022-09-21T14:36:43;101897.22;;;22.36;35.75
46954;BME280;32707;43.886;12.874;2022-09-21T14:39:20;101892.56;;;22.70;35.44
46954;BME280;32707;43.886;12.874;2022-09-21T14:41:50;101888.59;;;22.98;34.90
46954;BME280;32707;43.886;12.874;2022-09-21T14:44:20;101888.03;;;23.12;34.81
46954;BME280;32707;43.886;12.874;2022-09-21T14:58:32;101893.34;;;23.90;34.14
46954;BME280;32707;43.886;12.874;2022-09-21T15:13:04;101892.63;;;25.06;32.49
46954;BME280;32707;43.886;12.874;2022-09-21T15:15:52;101889.19;;;24.86;32.92
46954;BME280;32707;43.886;12.874;2022-09-21T15:18:22;101890.44;;;24.51;33.29
46954;BME280;32707;43.886;12.874;2022-09-21T15:21:00;101894.50;;;23.85;34.17
46954;BME280;32707;43.886;12.874;2022-09-21T15:23:33;101896.09;;;23.29;35.12
46954;BME280;32707;43.886;12.874;2022-09-21T15:26:03;101895.25;;;22.83;35.40
46954;BME280;32707;43.886;12.874;2022-09-21T15:28:39;101889.19;;;22.42;36.15
46954;BME280;32707;43.886;12.874;2022-09-21T15:31:06;101904.91;;;22.16;36.44
46954;BME280;32707;43.886;12.874;2022-09-21T15:33:36;101898.78;;;21.79;36.93
46954;BME280;32707;43.886;12.874;2022-09-21T15:36:04;101901.44;;;21.52;37.20
46954;BME280;32707;43.886;12.874;2022-09-21T15:38:32;101897.66;;;21.32;37.42
46954;BME280;32707;43.886;12.874;2022-09-21T15:41:00;101898.22;;;21.06;37.87
46954;BME280;32707;43.886;12.874;2022-09-21T15:43:26;101905.53;;;20.75;38.14
46954;BME280;32707;43.886;12.874;2022-09-21T15:46:03;101894.94;;;20.59;38.00
46954;BME280;32707;43.886;12.874;2022-09-21T15:48:37;101898.38;;;20.37;38.57
46954;BME280;32707;43.886;12.874;2022-09-21T15:51:17;101906.13;;;20.24;38.66
46954;BME280;32707;43.886;12.874;2022-09-21T15:53:58;101905.09;;;20.04;38.78
46954;BME280;32707;43.886;12.874;2022-09-21T15:56:29;101902.56;;;19.87;38.90